sensor_id;sensor_type;location;lat;lon;timestamp;temperature;humidity
70368;DHT22;57789;53.868;10.728;2022-10-16T00:01:28;14.00;99.90
70368;DHT22;57789;53.868;10.728;2022-10-16T00:03:56;14.00;99.90
70368;DHT22;57789;53.868;10.728;2022-10-16T00:06:23;14.00;99.90
70368;DHT22;57789;53.868;10.728;2022-10-16T00:08:49;14.00;99.90
70368;DHT22;57789;53.868;10.728;2022-10-16T00:11:18;13.90;99.90
70368;DHT22;57789;53.868;10.728;2022-10-16T00:13:45;13.90;99.90
70368;DHT22;57789;53.868;10.728;2022-10-16T00:16:13;14.00;99.90
70368;DHT22;57789;53.868;10.728;2022-10-16T00:18:39;14.00;99.90
70368;DHT22;57789;53.868;10.728;2022-10-16T00:21:10;14.00;99.90
70368;DHT22;57789;53.868;10.728;2022-10-16T00:23:36;13.90;99.90
70368;DHT22;57789;53.868;10.728;2022-10-16T00:26:05;13.90;99.90
70368;DHT22;57789;53.868;10.728;2022-10-16T00:28:31;13.90;99.90
70368;DHT22;57789;53.868;10.728;2022-10-16T00:30:57;13.90;99.90
70368;DHT22;57789;53.868;10.728;2022-10-16T00:33:23;13.90;99.90
70368;DHT22;57789;53.868;10.728;2022-10-16T00:35:49;13.90;99.90
70368;DHT22;57789;53.868;10.728;2022-10-16T00:38:15;13.80;99.90
70368;DHT22;57789;53.868;10.728;2022-10-16T00:40:41;13.80;99.90
70368;DHT22;57789;53.868;10.728;2022-10-16T00:43:46;13.80;99.90
70368;DHT22;57789;53.868;10.728;2022-10-16T00:46:54;13.80;99.90
70368;DHT22;57789;53.868;10.728;2022-10-16T00:51:34;13.70;99.90
70368;DHT22;57789;53.868;10.728;2022-10-16T00:54:06;13.70;99.90
70368;DHT22;57789;53.868;10.728;2022-10-16T00:56:33;13.70;99.90
70368;DHT22;57789;53.868;10.728;2022-10-16T00:58:59;13.70;99.90
70368;DHT22;57789;53.868;10.728;2022-10-16T01:01:30;13.60;99.90
70368;DHT22;57789;53.868;10.728;2022-10-16T01:03:55;13.60;99.90
70368;DHT22;57789;53.868;10.728;2022-10-16T01:06:23;13.60;99.90
70368;DHT22;57789;53.868;10.728;2022-10-16T01:11:34;13.60;99.90
70368;DHT22;57789;53.868;10.728;2022-10-16T01:14:09;13.60;99.90
70368;DHT22;57789;53.868;10.728;2022-10-16T01:16:39;13.60;99.90
70368;DHT22;57789;53.868;10.728;2022-10-16T01:19:50;13.50;99.90
70368;DHT22;57789;53.868;10.728;2022-10-16T01:22:12;13.50;99.90
70368;DHT22;57789;53.868;10.728;2022-10-16T01:24:39;13.50;99.90
70368;DHT22;57789;53.868;10.728;2022-10-16T01:27:25;13.50;99.90
70368;DHT22;57789;53.868;10.728;2022-10-16T01:30:10;13.40;99.90
70368;DHT22;57789;53.868;10.728;2022-10-16T01:32:57;13.40;99.90
70368;DHT22;57789;53.868;10.728;2022-10-16T01:35:30;13.40;99.90
70368;DHT22;57789;53.868;10.728;2022-10-16T01:38:14;13.30;99.90
70368;DHT22;57789;53.868;10.728;2022-10-16T01:40:46;13.40;99.90
70368;DHT22;57789;53.868;10.728;2022-10-16T01:43:16;13.40;99.90
70368;DHT22;57789;53.868;10.728;2022-10-16T01:45:44;13.30;99.90
70368;DHT22;57789;53.868;10.728;2022-10-16T01:48:13;13.30;99.90
70368;DHT22;57789;53.868;10.728;2022-10-16T01:50:42;13.30;99.90
70368;DHT22;57789;53.868;10.728;2022-10-16T01:53:11;13.30;99.90
70368;DHT22;57789;53.868;10.728;2022-10-16T01:55:48;13.20;99.90
70368;DHT22;57789;53.868;10.728;2022-10-16T01:58:15;13.20;99.90
70368;DHT22;57789;53.868;10.728;2022-10-16T02:00:44;13.20;99.90
70368;DHT22;57789;53.868;10.728;2022-10-16T02:03:12;13.20;99.90
70368;DHT22;57789;53.868;10.728;2022-10-16T02:05:53;13.10;99.90
70368;DHT22;57789;53.868;10.728;2022-10-16T02:08:23;13.10;99.90
70368;DHT22;57789;53.868;10.728;2022-10-16T02:10:49;13.10;99.90
70368;DHT22;57789;53.868;10.728;2022-10-16T02:13:26;13.00;99.90
70368;DHT22;57789;53.868;10.728;2022-10-16T02:15:53;13.00;99.90
70368;DHT22;57789;53.868;10.728;2022-10-16T02:18:21;13.00;99.90
70368;DHT22;57789;53.868;10.728;2022-10-16T02:23:50;12.90;99.90
70368;DHT22;57789;53.868;10.728;2022-10-16T02:26:35;12.90;99.90
70368;DHT22;57789;53.868;10.728;2022-10-16T02:29:06;12.90;99.90
70368;DHT22;57789;53.868;10.728;2022-10-16T02:31:36;12.90;99.90
70368;DHT22;57789;53.868;10.728;2022-10-16T02:34:04;12.90;99.90
70368;DHT22;57789;53.868;10.728;2022-10-16T02:36:32;12.90;99.90
70368;DHT22;57789;53.868;10.728;2022-10-16T02:38:59;12.90;99.90
70368;DHT22;57789;53.868;10.728;2022-10-16T02:41:26;12.90;99.90
70368;DHT22;57789;53.868;10.728;2022-10-16T02:43:52;12.90;99.90
70368;DHT22;57789;53.868;10.728;2022-10-16T02:46:20;12.90;99.90
70368;DHT22;57789;53.868;10.728;2022-10-16T02:48:46;12.90;99.90
70368;DHT22;57789;53.868;10.728;2022-10-16T02:51:11;12.90;99.90
70368;DHT22;57789;53.868;10.728;2022-10-16T02:53:37;12.90;99.90
70368;DHT22;57789;53.868;10.728;2022-10-16T02:56:03;12.90;99.90
70368;DHT22;57789;53.868;10.728;2022-10-16T02:58:29;12.80;99.90
70368;DHT22;57789;53.868;10.728;2022-10-16T03:00:55;12.80;99.90
70368;DHT22;57789;53.868;10.728;2022-10-16T03:03:21;12.80;99.90
70368;DHT22;57789;53.868;10.728;2022-10-16T03:05:46;12.80;99.90
70368;DHT22;57789;53.868;10.728;2022-10-16T03:08:13;12.70;99.90
70368;DHT22;57789;53.868;10.728;2022-10-16T03:10:38;12.70;99.90
70368;DHT22;57789;53.868;10.728;2022-10-16T03:13:04;12.70;99.90
70368;DHT22;57789;53.868;10.728;2022-10-16T03:15:30;12.60;99.90
70368;DHT22;57789;53.868;10.728;2022-10-16T03:17:58;12.60;99.90
70368;DHT22;57789;53.868;10.728;2022-10-16T03:20:24;12.60;99.90
70368;DHT22;57789;53.868;10.728;2022-10-16T03:22:50;12.60;99.90
70368;DHT22;57789;53.868;10.728;2022-10-16T03:25:16;12.60;99.90
70368;DHT22;57789;53.868;10.728;2022-10-16T03:27:42;12.60;99.90
70368;DHT22;57789;53.868;10.728;2022-10-16T03:30:08;12.60;99.90
70368;DHT22;57789;53.868;10.728;2022-10-16T03:32:34;12.50;99.90
70368;DHT22;57789;53.868;10.728;2022-10-16T03:34:59;12.50;99.90
70368;DHT22;57789;53.868;10.728;2022-10-16T03:37:25;12.40;99.90
70368;DHT22;57789;53.868;10.728;2022-10-16T03:39:51;12.40;99.90
70368;DHT22;57789;53.868;10.728;2022-10-16T03:42:17;12.40;99.90
70368;DHT22;57789;53.868;10.728;2022-10-16T03:44:42;12.30;99.90
70368;DHT22;57789;53.868;10.728;2022-10-16T03:47:08;12.30;99.90
70368;DHT22;57789;53.868;10.728;2022-10-16T03:49:33;12.30;99.90
70368;DHT22;57789;53.868;10.728;2022-10-16T03:51:59;12.30;99.90
70368;DHT22;57789;53.868;10.728;2022-10-16T03:54:25;12.30;99.90
70368;DHT22;57789;53.868;10.728;2022-10-16T03:56:50;12.20;99.90
70368;DHT22;57789;53.868;10.728;2022-10-16T03:59:16;12.20;99.90
70368;DHT22;57789;53.868;10.728;2022-10-16T04:01:41;12.20;99.90
70368;DHT22;57789;53.868;10.728;2022-10-16T04:04:07;12.20;99.90
70368;DHT22;57789;53.868;10.728;2022-10-16T04:06:33;12.20;99.90
70368;DHT22;57789;53.868;10.728;2022-10-16T04:08:58;12.10;99.90
70368;DHT22;57789;53.868;10.728;2022-10-16T04:11:24;12.10;99.90
70368;DHT22;57789;53.868;10.728;2022-10-16T04:13:49;12.20;99.90
70368;DHT22;57789;53.868;10.728;2022-10-16T04:16:15;12.20;99.90
70368;DHT22;57789;53.868;10.728;2022-10-16T04:18:41;12.20;99.90
70368;DHT22;57789;53.868;10.728;2022-10-16T04:21:06;12.20;99.90
70368;DHT22;57789;53.868;10.728;2022-10-16T04:23:33;12.20;99.90
70368;DHT22;57789;53.868;10.728;2022-10-16T04:26:00;12.20;99.90
70368;DHT22;57789;53.868;10.728;2022-10-16T04:28:25;12.20;99.90
70368;DHT22;57789;53.868;10.728;2022-10-16T04:30:52;12.20;99.90
70368;DHT22;57789;53.868;10.728;2022-10-16T04:33:20;12.20;99.90
70368;DHT22;57789;53.868;10.728;2022-10-16T04:35:46;12.10;99.90
70368;DHT22;57789;53.868;10.728;2022-10-16T04:38:11;12.10;99.90
70368;DHT22;57789;53.868;10.728;2022-10-16T04:40:42;12.20;99.90
70368;DHT22;57789;53.868;10.728;2022-10-16T04:43:07;12.10;99.90
70368;DHT22;57789;53.868;10.728;2022-10-16T04:45:33;12.20;99.90
70368;DHT22;57789;53.868;10.728;2022-10-16T04:47:59;12.20;99.90
70368;DHT22;57789;53.868;10.728;2022-10-16T04:50:25;12.10;99.90
70368;DHT22;57789;53.868;10.728;2022-10-16T04:52:50;12.20;99.90
70368;DHT22;57789;53.868;10.728;2022-10-16T04:55:16;12.10;99.90
70368;DHT22;57789;53.868;10.728;2022-10-16T04:57:42;12.10;99.90
70368;DHT22;57789;53.868;10.728;2022-10-16T05:00:11;12.10;99.90
70368;DHT22;57789;53.868;10.728;2022-10-16T05:02:36;12.10;99.90
70368;DHT22;57789;53.868;10.728;2022-10-16T05:05:02;12.10;99.90
70368;DHT22;57789;53.868;10.728;2022-10-16T05:07:28;12.10;99.90
70368;DHT22;57789;53.868;10.728;2022-10-16T05:09:54;12.10;99.90
70368;DHT22;57789;53.868;10.728;2022-10-16T05:12:19;12.10;99.90
70368;DHT22;57789;53.868;10.728;2022-10-16T05:14:45;12.10;99.90
70368;DHT22;57789;53.868;10.728;2022-10-16T05:17:10;12.00;99.90
70368;DHT22;57789;53.868;10.728;2022-10-16T05:19:36;12.00;99.90
70368;DHT22;57789;53.868;10.728;2022-10-16T05:22:02;12.00;99.90
70368;DHT22;57789;53.868;10.728;2022-10-16T05:24:27;12.00;99.90
70368;DHT22;57789;53.868;10.728;2022-10-16T05:26:53;12.00;99.90
70368;DHT22;57789;53.868;10.728;2022-10-16T05:29:19;11.90;99.90
70368;DHT22;57789;53.868;10.728;2022-10-16T05:31:45;11.90;99.90
70368;DHT22;57789;53.868;10.728;2022-10-16T05:34:10;11.90;99.90
70368;DHT22;57789;53.868;10.728;2022-10-16T05:36:36;11.90;99.90
70368;DHT22;57789;53.868;10.728;2022-10-16T05:39:02;11.80;99.90
70368;DHT22;57789;53.868;10.728;2022-10-16T05:41:28;11.80;99.90
70368;DHT22;57789;53.868;10.728;2022-10-16T05:43:53;11.80;99.90
70368;DHT22;57789;53.868;10.728;2022-10-16T05:46:19;11.80;99.90
70368;DHT22;57789;53.868;10.728;2022-10-16T05:48:45;11.80;99.90
70368;DHT22;57789;53.868;10.728;2022-10-16T05:51:13;11.70;99.90
70368;DHT22;57789;53.868;10.728;2022-10-16T05:53:40;11.70;99.90
70368;DHT22;57789;53.868;10.728;2022-10-16T05:56:08;11.70;99.90
70368;DHT22;57789;53.868;10.728;2022-10-16T05:58:36;11.70;99.90
70368;DHT22;57789;53.868;10.728;2022-10-16T06:01:05;11.70;99.90
70368;DHT22;57789;53.868;10.728;2022-10-16T06:03:33;11.70;99.90
70368;DHT22;57789;53.868;10.728;2022-10-16T06:05:59;11.70;99.90
70368;DHT22;57789;53.868;10.728;2022-10-16T06:08:24;11.70;99.90
70368;DHT22;57789;53.868;10.728;2022-10-16T06:11:02;11.70;99.90
70368;DHT22;57789;53.868;10.728;2022-10-16T06:13:27;11.70;99.90
70368;DHT22;57789;53.868;10.728;2022-10-16T06:15:56;11.80;99.90
70368;DHT22;57789;53.868;10.728;2022-10-16T06:18:22;11.80;99.90
70368;DHT22;57789;53.868;10.728;2022-10-16T06:20:47;11.80;99.90
70368;DHT22;57789;53.868;10.728;2022-10-16T06:23:13;11.90;99.90
70368;DHT22;57789;53.868;10.728;2022-10-16T06:25:38;11.90;99.90
70368;DHT22;57789;53.868;10.728;2022-10-16T06:28:04;12.00;99.90
70368;DHT22;57789;53.868;10.728;2022-10-16T06:30:30;12.00;99.90
70368;DHT22;57789;53.868;10.728;2022-10-16T06:32:55;12.10;99.90
70368;DHT22;57789;53.868;10.728;2022-10-16T06:35:21;12.10;99.90
70368;DHT22;57789;53.868;10.728;2022-10-16T06:37:50;12.10;99.90
70368;DHT22;57789;53.868;10.728;2022-10-16T06:40:15;12.10;99.90
70368;DHT22;57789;53.868;10.728;2022-10-16T06:42:41;12.10;99.90
70368;DHT22;57789;53.868;10.728;2022-10-16T06:45:11;12.20;99.90
70368;DHT22;57789;53.868;10.728;2022-10-16T06:47:38;12.20;99.90
70368;DHT22;57789;53.868;10.728;2022-10-16T06:50:04;12.20;99.90
70368;DHT22;57789;53.868;10.728;2022-10-16T06:52:32;12.20;99.90
70368;DHT22;57789;53.868;10.728;2022-10-16T06:55:00;12.20;99.90
70368;DHT22;57789;53.868;10.728;2022-10-16T06:57:26;12.30;99.90
70368;DHT22;57789;53.868;10.728;2022-10-16T06:59:52;12.30;99.90
70368;DHT22;57789;53.868;10.728;2022-10-16T07:02:18;12.30;99.90
70368;DHT22;57789;53.868;10.728;2022-10-16T07:04:43;12.40;99.90
70368;DHT22;57789;53.868;10.728;2022-10-16T07:07:09;12.40;99.90
70368;DHT22;57789;53.868;10.728;2022-10-16T07:09:35;12.40;99.90
70368;DHT22;57789;53.868;10.728;2022-10-16T07:12:01;12.50;99.90
70368;DHT22;57789;53.868;10.728;2022-10-16T07:14:26;12.50;99.90
70368;DHT22;57789;53.868;10.728;2022-10-16T07:16:53;12.60;99.90
70368;DHT22;57789;53.868;10.728;2022-10-16T07:19:18;12.70;99.90
70368;DHT22;57789;53.868;10.728;2022-10-16T07:21:44;12.70;99.90
70368;DHT22;57789;53.868;10.728;2022-10-16T07:24:15;12.80;99.90
70368;DHT22;57789;53.868;10.728;2022-10-16T07:26:42;12.80;99.90
70368;DHT22;57789;53.868;10.728;2022-10-16T07:29:14;12.90;99.90
70368;DHT22;57789;53.868;10.728;2022-10-16T07:31:40;13.00;99.90
70368;DHT22;57789;53.868;10.728;2022-10-16T07:34:06;13.10;99.90
70368;DHT22;57789;53.868;10.728;2022-10-16T07:36:32;13.20;99.90
70368;DHT22;57789;53.868;10.728;2022-10-16T07:39:00;13.30;99.90
70368;DHT22;57789;53.868;10.728;2022-10-16T07:41:26;13.50;99.90
70368;DHT22;57789;53.868;10.728;2022-10-16T07:43:53;13.70;99.90
70368;DHT22;57789;53.868;10.728;2022-10-16T07:46:21;13.90;99.90
70368;DHT22;57789;53.868;10.728;2022-10-16T07:48:47;14.00;99.90
70368;DHT22;57789;53.868;10.728;2022-10-16T07:51:22;14.30;99.90
70368;DHT22;57789;53.868;10.728;2022-10-16T07:53:49;14.50;99.90
70368;DHT22;57789;53.868;10.728;2022-10-16T07:56:16;14.50;99.90
70368;DHT22;57789;53.868;10.728;2022-10-16T07:58:42;14.70;99.90
70368;DHT22;57789;53.868;10.728;2022-10-16T08:01:13;14.80;99.90
70368;DHT22;57789;53.868;10.728;2022-10-16T08:03:42;14.90;99.90
70368;DHT22;57789;53.868;10.728;2022-10-16T08:06:08;14.90;99.90
70368;DHT22;57789;53.868;10.728;2022-10-16T08:08:34;15.00;99.90
70368;DHT22;57789;53.868;10.728;2022-10-16T08:11:00;15.00;99.90
70368;DHT22;57789;53.868;10.728;2022-10-16T08:13:29;15.00;99.90
70368;DHT22;57789;53.868;10.728;2022-10-16T08:15:54;15.10;99.90
70368;DHT22;57789;53.868;10.728;2022-10-16T08:18:20;15.20;99.90
70368;DHT22;57789;53.868;10.728;2022-10-16T08:20:46;15.10;99.90
70368;DHT22;57789;53.868;10.728;2022-10-16T08:23:12;15.00;99.90
70368;DHT22;57789;53.868;10.728;2022-10-16T08:25:39;15.00;99.90
70368;DHT22;57789;53.868;10.728;2022-10-16T08:28:09;14.90;99.90
70368;DHT22;57789;53.868;10.728;2022-10-16T08:30:35;14.80;99.90
70368;DHT22;57789;53.868;10.728;2022-10-16T08:33:02;14.60;99.90
70368;DHT22;57789;53.868;10.728;2022-10-16T08:35:28;14.60;99.90
70368;DHT22;57789;53.868;10.728;2022-10-16T08:37:53;14.60;99.90
70368;DHT22;57789;53.868;10.728;2022-10-16T08:40:25;14.60;99.90
70368;DHT22;57789;53.868;10.728;2022-10-16T08:48:45;14.70;99.90
70368;DHT22;57789;53.868;10.728;2022-10-16T08:51:19;14.80;99.90
70368;DHT22;57789;53.868;10.728;2022-10-16T08:56:39;14.90;99.90
70368;DHT22;57789;53.868;10.728;2022-10-16T08:59:10;15.00;99.90
70368;DHT22;57789;53.868;10.728;2022-10-16T09:01:44;15.00;99.90
70368;DHT22;57789;53.868;10.728;2022-10-16T09:12:22;15.30;99.90
70368;DHT22;57789;53.868;10.728;2022-10-16T09:22:37;15.60;99.90
70368;DHT22;57789;53.868;10.728;2022-10-16T09:25:12;15.70;99.90
70368;DHT22;57789;53.868;10.728;2022-10-16T09:27:38;15.70;99.90
70368;DHT22;57789;53.868;10.728;2022-10-16T09:30:15;15.80;99.90
70368;DHT22;57789;53.868;10.728;2022-10-16T09:32:42;16.00;99.90
70368;DHT22;57789;53.868;10.728;2022-10-16T09:35:15;16.00;99.90
70368;DHT22;57789;53.868;10.728;2022-10-16T09:37:45;16.10;99.90
70368;DHT22;57789;53.868;10.728;2022-10-16T09:40:35;16.10;99.90
70368;DHT22;57789;53.868;10.728;2022-10-16T09:45:43;16.20;99.90
70368;DHT22;57789;53.868;10.728;2022-10-16T09:48:19;16.30;99.90
70368;DHT22;57789;53.868;10.728;2022-10-16T09:50:56;16.30;99.90
70368;DHT22;57789;53.868;10.728;2022-10-16T09:53:21;16.30;99.90
70368;DHT22;57789;53.868;10.728;2022-10-16T09:55:54;16.30;99.90
70368;DHT22;57789;53.868;10.728;2022-10-16T09:58:23;16.40;99.90
70368;DHT22;57789;53.868;10.728;2022-10-16T10:00:52;16.50;99.90
70368;DHT22;57789;53.868;10.728;2022-10-16T10:03:41;16.60;99.90
70368;DHT22;57789;53.868;10.728;2022-10-16T10:07:29;16.60;99.90
70368;DHT22;57789;53.868;10.728;2022-10-16T10:09:34;16.70;99.90
70368;DHT22;57789;53.868;10.728;2022-10-16T10:12:04;16.80;99.90
70368;DHT22;57789;53.868;10.728;2022-10-16T10:20:13;16.90;99.90
70368;DHT22;57789;53.868;10.728;2022-10-16T10:27:43;17.30;99.90
70368;DHT22;57789;53.868;10.728;2022-10-16T10:40:56;17.10;99.90
70368;DHT22;57789;53.868;10.728;2022-10-16T10:45:57;17.20;99.90
70368;DHT22;57789;53.868;10.728;2022-10-16T10:48:32;17.30;99.90
70368;DHT22;57789;53.868;10.728;2022-10-16T10:51:24;17.30;99.90
70368;DHT22;57789;53.868;10.728;2022-10-16T10:54:26;17.40;99.90
70368;DHT22;57789;53.868;10.728;2022-10-16T11:02:54;17.70;99.90
70368;DHT22;57789;53.868;10.728;2022-10-16T11:05:44;18.00;99.90
70368;DHT22;57789;53.868;10.728;2022-10-16T11:08:13;18.30;99.90
70368;DHT22;57789;53.868;10.728;2022-10-16T11:11:16;18.40;99.90
70368;DHT22;57789;53.868;10.728;2022-10-16T11:14:00;18.60;99.90
70368;DHT22;57789;53.868;10.728;2022-10-16T11:16:42;18.70;99.90
70368;DHT22;57789;53.868;10.728;2022-10-16T11:19:13;18.80;99.90
70368;DHT22;57789;53.868;10.728;2022-10-16T11:21:46;18.80;99.90
70368;DHT22;57789;53.868;10.728;2022-10-16T11:24:37;19.00;99.90
70368;DHT22;57789;53.868;10.728;2022-10-16T11:27:14;18.80;99.90
70368;DHT22;57789;53.868;10.728;2022-10-16T11:30:19;18.50;99.90
70368;DHT22;57789;53.868;10.728;2022-10-16T11:33:41;18.30;99.90
70368;DHT22;57789;53.868;10.728;2022-10-16T11:35:43;18.30;99.90
70368;DHT22;57789;53.868;10.728;2022-10-16T11:38:48;18.20;99.90
70368;DHT22;57789;53.868;10.728;2022-10-16T11:46:32;18.10;99.90
70368;DHT22;57789;53.868;10.728;2022-10-16T11:49:18;17.90;99.90
70368;DHT22;57789;53.868;10.728;2022-10-16T11:51:55;17.90;99.90
70368;DHT22;57789;53.868;10.728;2022-10-16T11:57:34;18.10;99.90
70368;DHT22;57789;53.868;10.728;2022-10-16T12:00:02;18.20;99.90
70368;DHT22;57789;53.868;10.728;2022-10-16T12:08:14;18.20;99.90
70368;DHT22;57789;53.868;10.728;2022-10-16T12:10:43;18.30;99.90
70368;DHT22;57789;53.868;10.728;2022-10-16T12:18:33;18.10;99.90
70368;DHT22;57789;53.868;10.728;2022-10-16T12:20:59;18.00;99.90
70368;DHT22;57789;53.868;10.728;2022-10-16T12:23:32;18.00;99.90
70368;DHT22;57789;53.868;10.728;2022-10-16T12:25:59;18.10;99.90
70368;DHT22;57789;53.868;10.728;2022-10-16T12:28:27;18.00;99.90
70368;DHT22;57789;53.868;10.728;2022-10-16T12:31:00;18.00;99.90
70368;DHT22;57789;53.868;10.728;2022-10-16T12:33:29;18.00;99.90
70368;DHT22;57789;53.868;10.728;2022-10-16T12:35:56;18.10;99.90
70368;DHT22;57789;53.868;10.728;2022-10-16T12:38:32;18.00;99.90
70368;DHT22;57789;53.868;10.728;2022-10-16T12:41:06;18.00;99.90
70368;DHT22;57789;53.868;10.728;2022-10-16T12:46:26;18.10;99.90
70368;DHT22;57789;53.868;10.728;2022-10-16T12:51:41;17.90;99.90
70368;DHT22;57789;53.868;10.728;2022-10-16T12:54:17;17.90;99.90
70368;DHT22;57789;53.868;10.728;2022-10-16T13:16:50;17.70;99.90
70368;DHT22;57789;53.868;10.728;2022-10-16T13:25:02;17.80;99.90
70368;DHT22;57789;53.868;10.728;2022-10-16T13:27:49;17.90;99.90
70368;DHT22;57789;53.868;10.728;2022-10-16T13:30:25;18.00;99.90
70368;DHT22;57789;53.868;10.728;2022-10-16T13:33:01;18.10;99.90
70368;DHT22;57789;53.868;10.728;2022-10-16T13:35:33;18.20;99.90
70368;DHT22;57789;53.868;10.728;2022-10-16T13:40:48;18.30;99.90
70368;DHT22;57789;53.868;10.728;2022-10-16T13:43:19;18.10;99.90
70368;DHT22;57789;53.868;10.728;2022-10-16T13:46:15;18.00;99.90
70368;DHT22;57789;53.868;10.728;2022-10-16T13:48:42;18.00;99.90
70368;DHT22;57789;53.868;10.728;2022-10-16T13:51:17;17.90;99.90
70368;DHT22;57789;53.868;10.728;2022-10-16T13:53:44;17.80;99.90
70368;DHT22;57789;53.868;10.728;2022-10-16T13:56:16;17.80;99.90
70368;DHT22;57789;53.868;10.728;2022-10-16T13:58:42;17.80;99.90
70368;DHT22;57789;53.868;10.728;2022-10-16T14:01:29;17.70;99.90
70368;DHT22;57789;53.868;10.728;2022-10-16T14:04:08;17.70;99.90
70368;DHT22;57789;53.868;10.728;2022-10-16T14:06:36;17.70;99.90
70368;DHT22;57789;53.868;10.728;2022-10-16T14:09:08;17.80;99.90
70368;DHT22;57789;53.868;10.728;2022-10-16T14:11:46;17.80;99.90
70368;DHT22;57789;53.868;10.728;2022-10-16T14:14:14;17.90;99.90
70368;DHT22;57789;53.868;10.728;2022-10-16T14:16:42;18.00;99.90
70368;DHT22;57789;53.868;10.728;2022-10-16T14:19:35;18.00;99.90
70368;DHT22;57789;53.868;10.728;2022-10-16T14:22:02;17.90;99.90
70368;DHT22;57789;53.868;10.728;2022-10-16T14:24:33;17.90;99.90
70368;DHT22;57789;53.868;10.728;2022-10-16T14:27:00;17.90;99.90
70368;DHT22;57789;53.868;10.728;2022-10-16T14:29:30;18.00;99.90
70368;DHT22;57789;53.868;10.728;2022-10-16T14:32:05;18.00;99.90
70368;DHT22;57789;53.868;10.728;2022-10-16T14:34:32;18.00;99.90
70368;DHT22;57789;53.868;10.728;2022-10-16T14:37:24;18.00;99.90
70368;DHT22;57789;53.868;10.728;2022-10-16T14:39:51;18.00;99.90
70368;DHT22;57789;53.868;10.728;2022-10-16T14:42:19;17.90;99.90
70368;DHT22;57789;53.868;10.728;2022-10-16T14:44:46;17.80;99.90
70368;DHT22;57789;53.868;10.728;2022-10-16T14:47:15;17.60;99.90
70368;DHT22;57789;53.868;10.728;2022-10-16T14:49:52;17.60;99.90
70368;DHT22;57789;53.868;10.728;2022-10-16T14:52:20;17.40;99.90
70368;DHT22;57789;53.868;10.728;2022-10-16T14:54:49;17.40;99.90
70368;DHT22;57789;53.868;10.728;2022-10-16T14:57:24;17.30;99.90
70368;DHT22;57789;53.868;10.728;2022-10-16T14:59:52;17.20;99.90
70368;DHT22;57789;53.868;10.728;2022-10-16T15:04:46;17.20;99.90
70368;DHT22;57789;53.868;10.728;2022-10-16T15:07:12;17.10;99.90
70368;DHT22;57789;53.868;10.728;2022-10-16T15:09:38;17.10;99.90
70368;DHT22;57789;53.868;10.728;2022-10-16T15:12:04;17.00;99.90
70368;DHT22;57789;53.868;10.728;2022-10-16T15:14:33;17.00;99.90
70368;DHT22;57789;53.868;10.728;2022-10-16T15:16:59;17.10;99.90
70368;DHT22;57789;53.868;10.728;2022-10-16T15:19:25;17.10;99.90
70368;DHT22;57789;53.868;10.728;2022-10-16T15:21:51;17.00;99.90
70368;DHT22;57789;53.868;10.728;2022-10-16T15:24:18;16.90;99.90
70368;DHT22;57789;53.868;10.728;2022-10-16T15:26:44;16.90;99.90
70368;DHT22;57789;53.868;10.728;2022-10-16T15:29:12;16.80;99.90
70368;DHT22;57789;53.868;10.728;2022-10-16T15:31:37;16.70;99.90
70368;DHT22;57789;53.868;10.728;2022-10-16T15:34:03;16.70;99.90
70368;DHT22;57789;53.868;10.728;2022-10-16T15:36:42;16.60;99.90
70368;DHT22;57789;53.868;10.728;2022-10-16T15:39:19;16.50;99.90
70368;DHT22;57789;53.868;10.728;2022-10-16T15:41:46;16.40;99.90
70368;DHT22;57789;53.868;10.728;2022-10-16T15:44:19;16.40;99.90
70368;DHT22;57789;53.868;10.728;2022-10-16T15:46:46;16.30;99.90
70368;DHT22;57789;53.868;10.728;2022-10-16T15:49:13;16.30;99.90
70368;DHT22;57789;53.868;10.728;2022-10-16T15:51:40;16.30;99.90
70368;DHT22;57789;53.868;10.728;2022-10-16T15:54:07;16.20;99.90
70368;DHT22;57789;53.868;10.728;2022-10-16T15:56:33;16.10;99.90
70368;DHT22;57789;53.868;10.728;2022-10-16T15:58:59;16.10;99.90
70368;DHT22;57789;53.868;10.728;2022-10-16T16:01:26;16.00;99.90
70368;DHT22;57789;53.868;10.728;2022-10-16T16:03:53;15.90;99.90
70368;DHT22;57789;53.868;10.728;2022-10-16T16:06:19;15.90;99.90
70368;DHT22;57789;53.868;10.728;2022-10-16T16:08:45;15.80;99.90
70368;DHT22;57789;53.868;10.728;2022-10-16T16:11:13;15.70;99.90
70368;DHT22;57789;53.868;10.728;2022-10-16T16:13:40;15.60;99.90
70368;DHT22;57789;53.868;10.728;2022-10-16T16:16:11;15.50;99.90
70368;DHT22;57789;53.868;10.728;2022-10-16T16:18:38;15.40;99.90
70368;DHT22;57789;53.868;10.728;2022-10-16T16:21:04;15.30;99.90
70368;DHT22;57789;53.868;10.728;2022-10-16T16:23:30;15.20;99.90
70368;DHT22;57789;53.868;10.728;2022-10-16T16:26:14;15.10;99.90
70368;DHT22;57789;53.868;10.728;2022-10-16T16:28:42;15.00;99.90
70368;DHT22;57789;53.868;10.728;2022-10-16T16:31:08;14.90;99.90
70368;DHT22;57789;53.868;10.728;2022-10-16T16:33:34;14.80;99.90
70368;DHT22;57789;53.868;10.728;2022-10-16T16:36:04;14.70;99.90
70368;DHT22;57789;53.868;10.728;2022-10-16T16:38:32;14.60;99.90
70368;DHT22;57789;53.868;10.728;2022-10-16T16:40:58;14.60;99.90
70368;DHT22;57789;53.868;10.728;2022-10-16T16:43:25;14.60;99.90
70368;DHT22;57789;53.868;10.728;2022-10-16T16:45:52;14.60;99.90
70368;DHT22;57789;53.868;10.728;2022-10-16T16:48:18;14.50;99.90
70368;DHT22;57789;53.868;10.728;2022-10-16T16:50:44;14.40;99.90
70368;DHT22;57789;53.868;10.728;2022-10-16T16:53:09;14.40;99.90
70368;DHT22;57789;53.868;10.728;2022-10-16T16:55:35;14.20;99.90
70368;DHT22;57789;53.868;10.728;2022-10-16T16:58:01;14.20;99.90
70368;DHT22;57789;53.868;10.728;2022-10-16T17:00:28;14.10;99.90
70368;DHT22;57789;53.868;10.728;2022-10-16T17:02:54;14.00;99.90
70368;DHT22;57789;53.868;10.728;2022-10-16T17:05:19;14.00;99.90
70368;DHT22;57789;53.868;10.728;2022-10-16T17:07:45;14.00;99.90
70368;DHT22;57789;53.868;10.728;2022-10-16T17:10:11;13.90;99.90
70368;DHT22;57789;53.868;10.728;2022-10-16T17:12:36;13.90;99.90
70368;DHT22;57789;53.868;10.728;2022-10-16T17:15:03;13.80;99.90
70368;DHT22;57789;53.868;10.728;2022-10-16T17:17:32;13.80;99.90
70368;DHT22;57789;53.868;10.728;2022-10-16T17:20:00;13.70;99.90
70368;DHT22;57789;53.868;10.728;2022-10-16T17:22:26;13.60;99.90
70368;DHT22;57789;53.868;10.728;2022-10-16T17:24:52;13.60;99.90
70368;DHT22;57789;53.868;10.728;2022-10-16T17:27:19;13.50;99.90
70368;DHT22;57789;53.868;10.728;2022-10-16T17:29:49;13.50;99.90
70368;DHT22;57789;53.868;10.728;2022-10-16T17:32:15;13.50;99.90